sensor_id;sensor_type;location;lat;lon;timestamp;P1;durP1;ratioP1;P2;durP2;ratioP2
11618;SDS011;5865;48.776;9.280;2023-06-04T00:00:16;5.63;;;4.70;;
11618;SDS011;5865;48.776;9.280;2023-06-04T00:02:43;6.67;;;4.87;;
11618;SDS011;5865;48.776;9.280;2023-06-04T00:05:10;7.37;;;4.80;;
11618;SDS011;5865;48.776;9.280;2023-06-04T00:07:37;6.20;;;4.57;;
11618;SDS011;5865;48.776;9.280;2023-06-04T00:10:04;5.70;;;4.60;;
11618;SDS011;5865;48.776;9.280;2023-06-04T00:12:32;5.33;;;4.70;;
11618;SDS011;5865;48.776;9.280;2023-06-04T00:15:00;4.87;;;4.37;;
11618;SDS011;5865;48.776;9.280;2023-06-04T00:17:27;5.43;;;3.77;;
11618;SDS011;5865;48.776;9.280;2023-06-04T00:19:54;4.60;;;3.97;;
11618;SDS011;5865;48.776;9.280;2023-06-04T00:22:21;4.37;;;3.93;;
11618;SDS011;5865;48.776;9.280;2023-06-04T00:24:48;5.00;;;4.00;;
11618;SDS011;5865;48.776;9.280;2023-06-04T00:27:15;4.93;;;4.00;;
11618;SDS011;5865;48.776;9.280;2023-06-04T00:29:43;5.90;;;3.87;;
11618;SDS011;5865;48.776;9.280;2023-06-04T00:32:11;6.13;;;4.20;;
11618;SDS011;5865;48.776;9.280;2023-06-04T00:34:38;6.20;;;3.93;;
11618;SDS011;5865;48.776;9.280;2023-06-04T00:37:05;7.30;;;4.60;;
11618;SDS011;5865;48.776;9.280;2023-06-04T00:39:32;4.07;;;3.60;;
11618;SDS011;5865;48.776;9.280;2023-06-04T00:41:59;7.30;;;4.00;;
11618;SDS011;5865;48.776;9.280;2023-06-04T00:44:26;5.63;;;4.10;;
11618;SDS011;5865;48.776;9.280;2023-06-04T00:46:53;4.87;;;3.77;;
11618;SDS011;5865;48.776;9.280;2023-06-04T00:49:22;5.60;;;4.00;;
11618;SDS011;5865;48.776;9.280;2023-06-04T00:51:49;4.53;;;3.80;;
11618;SDS011;5865;48.776;9.280;2023-06-04T00:54:17;4.80;;;3.43;;
11618;SDS011;5865;48.776;9.280;2023-06-04T00:56:46;5.47;;;3.70;;
11618;SDS011;5865;48.776;9.280;2023-06-04T00:59:13;4.30;;;3.63;;
11618;SDS011;5865;48.776;9.280;2023-06-04T01:01:42;4.17;;;3.50;;
11618;SDS011;5865;48.776;9.280;2023-06-04T01:04:16;4.10;;;3.40;;
11618;SDS011;5865;48.776;9.280;2023-06-04T01:06:51;5.80;;;3.30;;
11618;SDS011;5865;48.776;9.280;2023-06-04T01:09:21;5.93;;;3.90;;
11618;SDS011;5865;48.776;9.280;2023-06-04T01:11:48;4.80;;;3.90;;
11618;SDS011;5865;48.776;9.280;2023-06-04T01:14:15;4.33;;;3.53;;
11618;SDS011;5865;48.776;9.280;2023-06-04T01:16:47;4.90;;;3.57;;
11618;SDS011;5865;48.776;9.280;2023-06-04T01:19:48;3.83;;;3.47;;
11618;SDS011;5865;48.776;9.280;2023-06-04T01:22:33;4.97;;;3.20;;
11618;SDS011;5865;48.776;9.280;2023-06-04T01:25:05;3.83;;;3.13;;
11618;SDS011;5865;48.776;9.280;2023-06-04T01:27:37;3.77;;;3.27;;
11618;SDS011;5865;48.776;9.280;2023-06-04T01:30:05;5.37;;;3.33;;
11618;SDS011;5865;48.776;9.280;2023-06-04T01:32:35;5.23;;;3.27;;
11618;SDS011;5865;48.776;9.280;2023-06-04T01:35:06;6.20;;;3.30;;
11618;SDS011;5865;48.776;9.280;2023-06-04T01:37:34;6.60;;;3.27;;
11618;SDS011;5865;48.776;9.280;2023-06-04T01:40:02;5.70;;;2.83;;
11618;SDS011;5865;48.776;9.280;2023-06-04T01:42:30;3.80;;;2.87;;
11618;SDS011;5865;48.776;9.280;2023-06-04T01:44:57;3.67;;;3.20;;
11618;SDS011;5865;48.776;9.280;2023-06-04T01:47:24;5.47;;;3.17;;
11618;SDS011;5865;48.776;9.280;2023-06-04T01:49:51;3.20;;;2.87;;
11618;SDS011;5865;48.776;9.280;2023-06-04T01:52:19;4.00;;;2.87;;
11618;SDS011;5865;48.776;9.280;2023-06-04T01:54:47;4.63;;;3.30;;
11618;SDS011;5865;48.776;9.280;2023-06-04T01:57:17;3.80;;;2.90;;
11618;SDS011;5865;48.776;9.280;2023-06-04T01:59:45;4.57;;;2.90;;
11618;SDS011;5865;48.776;9.280;2023-06-04T02:02:12;4.20;;;2.97;;
11618;SDS011;5865;48.776;9.280;2023-06-04T02:04:40;3.33;;;2.70;;
11618;SDS011;5865;48.776;9.280;2023-06-04T02:07:08;2.70;;;2.50;;
11618;SDS011;5865;48.776;9.280;2023-06-04T02:09:36;2.83;;;2.33;;
11618;SDS011;5865;48.776;9.280;2023-06-04T02:12:03;2.67;;;2.10;;
11618;SDS011;5865;48.776;9.280;2023-06-04T02:14:31;4.83;;;2.77;;
11618;SDS011;5865;48.776;9.280;2023-06-04T02:16:58;4.73;;;2.40;;
11618;SDS011;5865;48.776;9.280;2023-06-04T02:19:25;2.77;;;2.20;;
11618;SDS011;5865;48.776;9.280;2023-06-04T02:21:52;2.43;;;2.07;;
11618;SDS011;5865;48.776;9.280;2023-06-04T02:24:19;3.23;;;1.97;;
11618;SDS011;5865;48.776;9.280;2023-06-04T02:26:48;2.30;;;2.10;;
11618;SDS011;5865;48.776;9.280;2023-06-04T02:29:15;2.93;;;2.30;;
11618;SDS011;5865;48.776;9.280;2023-06-04T02:31:42;2.40;;;2.10;;
11618;SDS011;5865;48.776;9.280;2023-06-04T02:34:09;2.43;;;2.20;;
11618;SDS011;5865;48.776;9.280;2023-06-04T02:36:36;2.87;;;2.50;;
11618;SDS011;5865;48.776;9.280;2023-06-04T02:39:03;5.10;;;2.30;;
11618;SDS011;5865;48.776;9.280;2023-06-04T02:41:30;5.27;;;2.80;;
11618;SDS011;5865;48.776;9.280;2023-06-04T02:43:58;4.30;;;2.80;;
11618;SDS011;5865;48.776;9.280;2023-06-04T02:46:25;3.53;;;2.97;;
11618;SDS011;5865;48.776;9.280;2023-06-04T02:48:52;3.47;;;2.73;;
11618;SDS011;5865;48.776;9.280;2023-06-04T02:51:19;4.00;;;2.70;;
11618;SDS011;5865;48.776;9.280;2023-06-04T02:53:46;3.97;;;2.40;;
11618;SDS011;5865;48.776;9.280;2023-06-04T02:56:13;4.23;;;2.50;;
11618;SDS011;5865;48.776;9.280;2023-06-04T02:58:48;3.03;;;2.70;;
11618;SDS011;5865;48.776;9.280;2023-06-04T03:01:21;3.47;;;2.40;;
11618;SDS011;5865;48.776;9.280;2023-06-04T03:03:49;4.37;;;2.70;;
11618;SDS011;5865;48.776;9.280;2023-06-04T03:06:16;3.23;;;2.57;;
11618;SDS011;5865;48.776;9.280;2023-06-04T03:08:45;3.83;;;2.43;;
11618;SDS011;5865;48.776;9.280;2023-06-04T03:11:12;3.60;;;2.33;;
11618;SDS011;5865;48.776;9.280;2023-06-04T03:13:39;3.23;;;2.17;;
11618;SDS011;5865;48.776;9.280;2023-06-04T03:16:06;3.73;;;2.60;;
11618;SDS011;5865;48.776;9.280;2023-06-04T03:18:36;3.27;;;2.50;;
11618;SDS011;5865;48.776;9.280;2023-06-04T03:21:03;2.40;;;2.20;;
11618;SDS011;5865;48.776;9.280;2023-06-04T03:23:30;1.97;;;1.70;;
11618;SDS011;5865;48.776;9.280;2023-06-04T03:25:58;4.23;;;2.03;;
11618;SDS011;5865;48.776;9.280;2023-06-04T03:28:25;3.33;;;2.63;;
11618;SDS011;5865;48.776;9.280;2023-06-04T03:30:52;3.90;;;2.40;;
11618;SDS011;5865;48.776;9.280;2023-06-04T03:33:20;2.50;;;2.07;;
11618;SDS011;5865;48.776;9.280;2023-06-04T03:35:49;2.53;;;2.30;;
11618;SDS011;5865;48.776;9.280;2023-06-04T03:38:16;4.40;;;2.33;;
11618;SDS011;5865;48.776;9.280;2023-06-04T03:40:43;3.73;;;2.40;;
11618;SDS011;5865;48.776;9.280;2023-06-04T03:43:10;5.67;;;2.40;;
11618;SDS011;5865;48.776;9.280;2023-06-04T03:45:38;3.27;;;2.20;;
11618;SDS011;5865;48.776;9.280;2023-06-04T03:48:06;4.43;;;2.60;;
11618;SDS011;5865;48.776;9.280;2023-06-04T03:50:35;2.77;;;2.00;;
11618;SDS011;5865;48.776;9.280;2023-06-04T03:53:03;3.83;;;2.30;;
11618;SDS011;5865;48.776;9.280;2023-06-04T03:55:31;6.23;;;2.40;;
11618;SDS011;5865;48.776;9.280;2023-06-04T03:58:00;2.70;;;2.30;;
11618;SDS011;5865;48.776;9.280;2023-06-04T04:00:28;2.43;;;2.00;;
11618;SDS011;5865;48.776;9.280;2023-06-04T04:02:58;3.33;;;2.20;;
11618;SDS011;5865;48.776;9.280;2023-06-04T04:05:28;2.33;;;2.10;;
11618;SDS011;5865;48.776;9.280;2023-06-04T04:07:55;2.57;;;2.00;;
11618;SDS011;5865;48.776;9.280;2023-06-04T04:10:28;3.50;;;2.03;;
11618;SDS011;5865;48.776;9.280;2023-06-04T04:12:55;3.83;;;2.10;;
11618;SDS011;5865;48.776;9.280;2023-06-04T04:15:24;2.40;;;2.10;;
11618;SDS011;5865;48.776;9.280;2023-06-04T04:17:53;3.63;;;2.03;;
11618;SDS011;5865;48.776;9.280;2023-06-04T04:20:21;2.57;;;2.07;;
11618;SDS011;5865;48.776;9.280;2023-06-04T04:22:59;2.13;;;1.90;;
11618;SDS011;5865;48.776;9.280;2023-06-04T04:25:30;2.60;;;1.70;;
11618;SDS011;5865;48.776;9.280;2023-06-04T04:27:59;3.43;;;1.90;;
11618;SDS011;5865;48.776;9.280;2023-06-04T04:30:28;3.10;;;2.07;;
11618;SDS011;5865;48.776;9.280;2023-06-04T04:32:55;3.13;;;2.30;;
11618;SDS011;5865;48.776;9.280;2023-06-04T04:35:28;2.43;;;2.23;;
11618;SDS011;5865;48.776;9.280;2023-06-04T04:37:58;5.27;;;2.27;;
11618;SDS011;5865;48.776;9.280;2023-06-04T04:40:31;2.90;;;2.20;;
11618;SDS011;5865;48.776;9.280;2023-06-04T04:42:59;3.30;;;2.40;;
11618;SDS011;5865;48.776;9.280;2023-06-04T04:45:27;2.20;;;2.00;;
11618;SDS011;5865;48.776;9.280;2023-06-04T04:47:57;3.53;;;2.20;;
11618;SDS011;5865;48.776;9.280;2023-06-04T04:50:24;2.50;;;2.27;;
11618;SDS011;5865;48.776;9.280;2023-06-04T04:52:52;2.63;;;2.43;;
11618;SDS011;5865;48.776;9.280;2023-06-04T04:55:19;3.30;;;2.33;;
11618;SDS011;5865;48.776;9.280;2023-06-04T04:57:49;3.93;;;2.20;;
11618;SDS011;5865;48.776;9.280;2023-06-04T05:00:17;5.33;;;2.30;;
11618;SDS011;5865;48.776;9.280;2023-06-04T05:02:50;3.30;;;2.17;;
11618;SDS011;5865;48.776;9.280;2023-06-04T05:05:17;2.83;;;2.10;;
11618;SDS011;5865;48.776;9.280;2023-06-04T05:07:46;2.17;;;1.90;;
11618;SDS011;5865;48.776;9.280;2023-06-04T05:10:14;3.00;;;2.07;;
11618;SDS011;5865;48.776;9.280;2023-06-04T05:12:51;2.53;;;2.03;;
11618;SDS011;5865;48.776;9.280;2023-06-04T05:15:20;3.90;;;2.20;;
11618;SDS011;5865;48.776;9.280;2023-06-04T05:17:49;3.90;;;2.00;;
11618;SDS011;5865;48.776;9.280;2023-06-04T05:20:18;3.97;;;2.17;;
11618;SDS011;5865;48.776;9.280;2023-06-04T05:22:46;3.40;;;2.37;;
11618;SDS011;5865;48.776;9.280;2023-06-04T05:25:14;3.40;;;2.30;;
11618;SDS011;5865;48.776;9.280;2023-06-04T05:27:42;2.57;;;1.90;;
11618;SDS011;5865;48.776;9.280;2023-06-04T05:30:13;3.47;;;2.30;;
11618;SDS011;5865;48.776;9.280;2023-06-04T05:32:40;3.50;;;2.20;;
11618;SDS011;5865;48.776;9.280;2023-06-04T05:35:10;2.80;;;2.20;;
11618;SDS011;5865;48.776;9.280;2023-06-04T05:37:39;3.85;;;2.10;;
11618;SDS011;5865;48.776;9.280;2023-06-04T05:40:08;1.85;;;1.70;;
11618;SDS011;5865;48.776;9.280;2023-06-04T05:42:36;2.40;;;1.90;;
11618;SDS011;5865;48.776;9.280;2023-06-04T05:45:03;2.67;;;1.80;;
11618;SDS011;5865;48.776;9.280;2023-06-04T05:47:34;3.35;;;1.75;;
11618;SDS011;5865;48.776;9.280;2023-06-04T05:50:02;3.67;;;1.85;;
11618;SDS011;5865;48.776;9.280;2023-06-04T05:52:31;2.72;;;1.73;;
11618;SDS011;5865;48.776;9.280;2023-06-04T05:54:59;2.42;;;2.00;;
11618;SDS011;5865;48.776;9.280;2023-06-04T05:57:26;2.17;;;1.77;;
11618;SDS011;5865;48.776;9.280;2023-06-04T05:59:53;2.45;;;1.90;;
11618;SDS011;5865;48.776;9.280;2023-06-04T06:02:20;2.90;;;1.60;;
11618;SDS011;5865;48.776;9.280;2023-06-04T06:04:48;3.65;;;1.98;;
11618;SDS011;5865;48.776;9.280;2023-06-04T06:07:15;2.13;;;1.70;;
11618;SDS011;5865;48.776;9.280;2023-06-04T06:09:43;4.00;;;1.88;;
11618;SDS011;5865;48.776;9.280;2023-06-04T06:12:10;3.20;;;2.00;;
11618;SDS011;5865;48.776;9.280;2023-06-04T06:14:40;2.10;;;1.90;;
11618;SDS011;5865;48.776;9.280;2023-06-04T06:17:07;2.75;;;2.00;;
11618;SDS011;5865;48.776;9.280;2023-06-04T06:19:35;2.72;;;1.80;;
11618;SDS011;5865;48.776;9.280;2023-06-04T06:22:04;2.17;;;1.70;;
11618;SDS011;5865;48.776;9.280;2023-06-04T06:24:31;2.60;;;1.80;;
11618;SDS011;5865;48.776;9.280;2023-06-04T06:26:59;2.95;;;1.73;;
11618;SDS011;5865;48.776;9.280;2023-06-04T06:29:27;2.95;;;1.83;;
11618;SDS011;5865;48.776;9.280;2023-06-04T06:31:55;4.13;;;2.15;;
11618;SDS011;5865;48.776;9.280;2023-06-04T06:34:22;4.30;;;2.08;;
11618;SDS011;5865;48.776;9.280;2023-06-04T06:36:49;4.18;;;1.73;;
11618;SDS011;5865;48.776;9.280;2023-06-04T06:39:17;2.85;;;1.77;;
11618;SDS011;5865;48.776;9.280;2023-06-04T06:41:44;3.72;;;2.00;;
11618;SDS011;5865;48.776;9.280;2023-06-04T06:44:16;2.20;;;1.90;;
11618;SDS011;5865;48.776;9.280;2023-06-04T06:46:43;2.22;;;1.90;;
11618;SDS011;5865;48.776;9.280;2023-06-04T06:49:10;2.90;;;1.70;;
11618;SDS011;5865;48.776;9.280;2023-06-04T06:51:37;3.03;;;1.77;;
11618;SDS011;5865;48.776;9.280;2023-06-04T06:54:04;5.13;;;1.80;;
11618;SDS011;5865;48.776;9.280;2023-06-04T06:56:33;3.05;;;2.03;;
11618;SDS011;5865;48.776;9.280;2023-06-04T06:59:00;2.47;;;1.90;;
11618;SDS011;5865;48.776;9.280;2023-06-04T07:01:27;2.97;;;2.15;;
11618;SDS011;5865;48.776;9.280;2023-06-04T07:03:57;2.92;;;1.85;;
11618;SDS011;5865;48.776;9.280;2023-06-04T07:06:26;2.58;;;1.90;;
11618;SDS011;5865;48.776;9.280;2023-06-04T07:08:53;3.78;;;2.00;;
11618;SDS011;5865;48.776;9.280;2023-06-04T07:11:21;2.85;;;1.90;;
11618;SDS011;5865;48.776;9.280;2023-06-04T07:13:58;2.55;;;1.92;;
11618;SDS011;5865;48.776;9.280;2023-06-04T07:16:27;3.28;;;1.95;;
11618;SDS011;5865;48.776;9.280;2023-06-04T07:18:54;2.30;;;1.80;;
11618;SDS011;5865;48.776;9.280;2023-06-04T07:21:22;3.20;;;1.73;;
11618;SDS011;5865;48.776;9.280;2023-06-04T07:23:50;3.25;;;1.88;;
11618;SDS011;5865;48.776;9.280;2023-06-04T07:26:18;3.75;;;2.05;;
11618;SDS011;5865;48.776;9.280;2023-06-04T07:28:46;2.83;;;1.92;;
11618;SDS011;5865;48.776;9.280;2023-06-04T07:34:03;3.75;;;1.85;;
11618;SDS011;5865;48.776;9.280;2023-06-04T07:36:31;2.35;;;1.95;;
11618;SDS011;5865;48.776;9.280;2023-06-04T07:38:59;2.70;;;1.90;;
11618;SDS011;5865;48.776;9.280;2023-06-04T07:41:28;2.10;;;1.67;;
11618;SDS011;5865;48.776;9.280;2023-06-04T07:43:56;2.28;;;1.77;;
11618;SDS011;5865;48.776;9.280;2023-06-04T07:46:23;2.33;;;1.80;;
11618;SDS011;5865;48.776;9.280;2023-06-04T07:48:50;2.40;;;1.95;;
11618;SDS011;5865;48.776;9.280;2023-06-04T07:51:19;3.33;;;2.00;;
11618;SDS011;5865;48.776;9.280;2023-06-04T07:53:48;5.35;;;2.20;;
11618;SDS011;5865;48.776;9.280;2023-06-04T07:56:15;3.15;;;2.00;;
11618;SDS011;5865;48.776;9.280;2023-06-04T07:58:43;3.65;;;2.00;;
11618;SDS011;5865;48.776;9.280;2023-06-04T08:01:12;3.47;;;1.95;;
11618;SDS011;5865;48.776;9.280;2023-06-04T08:03:39;2.42;;;1.88;;
11618;SDS011;5865;48.776;9.280;2023-06-04T08:06:06;2.55;;;1.90;;
11618;SDS011;5865;48.776;9.280;2023-06-04T08:08:37;4.90;;;1.98;;
11618;SDS011;5865;48.776;9.280;2023-06-04T08:11:04;2.20;;;2.00;;
11618;SDS011;5865;48.776;9.280;2023-06-04T08:13:31;3.67;;;2.10;;
11618;SDS011;5865;48.776;9.280;2023-06-04T08:15:59;3.38;;;1.90;;
11618;SDS011;5865;48.776;9.280;2023-06-04T08:18:26;2.75;;;1.73;;
11618;SDS011;5865;48.776;9.280;2023-06-04T08:20:54;3.08;;;1.80;;
11618;SDS011;5865;48.776;9.280;2023-06-04T08:23:21;1.98;;;1.77;;
11618;SDS011;5865;48.776;9.280;2023-06-04T08:25:50;2.80;;;2.10;;
11618;SDS011;5865;48.776;9.280;2023-06-04T08:28:17;2.00;;;1.80;;
11618;SDS011;5865;48.776;9.280;2023-06-04T08:30:46;4.05;;;2.20;;
11618;SDS011;5865;48.776;9.280;2023-06-04T08:33:13;3.70;;;2.03;;
11618;SDS011;5865;48.776;9.280;2023-06-04T08:35:42;2.58;;;2.10;;
11618;SDS011;5865;48.776;9.280;2023-06-04T08:38:10;2.72;;;2.10;;
11618;SDS011;5865;48.776;9.280;2023-06-04T08:43:53;3.13;;;2.03;;
11618;SDS011;5865;48.776;9.280;2023-06-04T08:46:26;2.85;;;2.10;;
11618;SDS011;5865;48.776;9.280;2023-06-04T08:48:54;4.45;;;2.33;;
11618;SDS011;5865;48.776;9.280;2023-06-04T08:51:23;5.53;;;2.50;;
11618;SDS011;5865;48.776;9.280;2023-06-04T08:53:50;2.10;;;1.90;;
11618;SDS011;5865;48.776;9.280;2023-06-04T08:56:19;4.10;;;2.08;;
11618;SDS011;5865;48.776;9.280;2023-06-04T08:58:48;3.53;;;2.20;;
11618;SDS011;5865;48.776;9.280;2023-06-04T09:01:19;6.10;;;2.10;;
11618;SDS011;5865;48.776;9.280;2023-06-04T09:03:49;4.03;;;2.20;;
11618;SDS011;5865;48.776;9.280;2023-06-04T09:06:23;3.85;;;2.20;;
11618;SDS011;5865;48.776;9.280;2023-06-04T09:08:51;2.20;;;2.00;;
11618;SDS011;5865;48.776;9.280;2023-06-04T09:11:19;2.20;;;1.80;;
11618;SDS011;5865;48.776;9.280;2023-06-04T09:13:47;3.15;;;2.00;;
11618;SDS011;5865;48.776;9.280;2023-06-04T09:16:15;3.72;;;2.20;;
11618;SDS011;5865;48.776;9.280;2023-06-04T09:18:45;6.43;;;2.40;;
11618;SDS011;5865;48.776;9.280;2023-06-04T09:21:13;3.90;;;2.30;;
11618;SDS011;5865;48.776;9.280;2023-06-04T09:24:08;3.38;;;2.15;;
11618;SDS011;5865;48.776;9.280;2023-06-04T09:26:35;3.53;;;2.10;;
11618;SDS011;5865;48.776;9.280;2023-06-04T09:29:02;4.55;;;2.25;;
11618;SDS011;5865;48.776;9.280;2023-06-04T09:31:32;3.13;;;2.20;;
11618;SDS011;5865;48.776;9.280;2023-06-04T09:34:02;3.78;;;2.17;;
11618;SDS011;5865;48.776;9.280;2023-06-04T09:36:30;2.20;;;1.90;;
11618;SDS011;5865;48.776;9.280;2023-06-04T09:38:58;4.05;;;2.25;;
11618;SDS011;5865;48.776;9.280;2023-06-04T09:41:26;3.33;;;2.38;;
11618;SDS011;5865;48.776;9.280;2023-06-04T09:43:59;3.10;;;2.10;;
11618;SDS011;5865;48.776;9.280;2023-06-04T09:46:28;3.88;;;2.42;;
11618;SDS011;5865;48.776;9.280;2023-06-04T09:48:59;3.50;;;2.20;;
11618;SDS011;5865;48.776;9.280;2023-06-04T09:51:27;4.05;;;2.55;;
11618;SDS011;5865;48.776;9.280;2023-06-04T09:53:54;2.60;;;2.20;;
11618;SDS011;5865;48.776;9.280;2023-06-04T09:56:22;5.35;;;2.38;;
11618;SDS011;5865;48.776;9.280;2023-06-04T09:58:50;5.20;;;2.25;;
11618;SDS011;5865;48.776;9.280;2023-06-04T10:01:21;3.95;;;2.40;;
11618;SDS011;5865;48.776;9.280;2023-06-04T10:03:50;3.58;;;2.42;;
11618;SDS011;5865;48.776;9.280;2023-06-04T10:06:18;3.03;;;2.47;;
11618;SDS011;5865;48.776;9.280;2023-06-04T10:08:46;2.95;;;2.47;;
11618;SDS011;5865;48.776;9.280;2023-06-04T10:11:15;4.97;;;2.70;;
11618;SDS011;5865;48.776;9.280;2023-06-04T10:13:47;5.30;;;2.85;;
11618;SDS011;5865;48.776;9.280;2023-06-04T10:16:20;3.60;;;2.50;;
11618;SDS011;5865;48.776;9.280;2023-06-04T10:18:49;3.58;;;2.53;;
11618;SDS011;5865;48.776;9.280;2023-06-04T10:21:20;4.25;;;2.70;;
11618;SDS011;5865;48.776;9.280;2023-06-04T10:23:49;3.35;;;2.58;;
11618;SDS011;5865;48.776;9.280;2023-06-04T10:26:16;3.55;;;2.47;;
11618;SDS011;5865;48.776;9.280;2023-06-04T10:28:43;4.22;;;2.67;;
11618;SDS011;5865;48.776;9.280;2023-06-04T10:31:10;3.55;;;2.70;;
11618;SDS011;5865;48.776;9.280;2023-06-04T10:33:40;3.63;;;2.60;;
11618;SDS011;5865;48.776;9.280;2023-06-04T10:36:16;3.70;;;2.45;;
11618;SDS011;5865;48.776;9.280;2023-06-04T10:38:45;3.15;;;2.60;;
11618;SDS011;5865;48.776;9.280;2023-06-04T10:41:13;4.28;;;2.60;;
11618;SDS011;5865;48.776;9.280;2023-06-04T10:43:41;3.55;;;2.40;;
11618;SDS011;5865;48.776;9.280;2023-06-04T10:46:12;4.07;;;2.63;;
11618;SDS011;5865;48.776;9.280;2023-06-04T10:48:48;2.78;;;2.30;;
11618;SDS011;5865;48.776;9.280;2023-06-04T10:51:16;4.43;;;2.60;;
11618;SDS011;5865;48.776;9.280;2023-06-04T10:53:55;4.72;;;2.47;;
11618;SDS011;5865;48.776;9.280;2023-06-04T10:56:24;3.33;;;2.50;;
11618;SDS011;5865;48.776;9.280;2023-06-04T10:58:52;3.83;;;2.90;;
11618;SDS011;5865;48.776;9.280;2023-06-04T11:01:23;4.03;;;2.60;;
11618;SDS011;5865;48.776;9.280;2023-06-04T11:03:52;3.10;;;2.47;;
11618;SDS011;5865;48.776;9.280;2023-06-04T11:06:19;3.90;;;2.47;;
11618;SDS011;5865;48.776;9.280;2023-06-04T11:09:00;5.65;;;2.47;;
11618;SDS011;5865;48.776;9.280;2023-06-04T11:11:28;3.03;;;2.55;;
11618;SDS011;5865;48.776;9.280;2023-06-04T11:13:55;4.78;;;2.58;;
11618;SDS011;5865;48.776;9.280;2023-06-04T11:16:32;6.05;;;2.78;;
11618;SDS011;5865;48.776;9.280;2023-06-04T11:19:01;4.40;;;3.00;;
11618;SDS011;5865;48.776;9.280;2023-06-04T11:21:28;5.38;;;2.72;;
11618;SDS011;5865;48.776;9.280;2023-06-04T11:23:56;4.13;;;3.03;;
11618;SDS011;5865;48.776;9.280;2023-06-04T11:26:29;3.20;;;2.60;;
11618;SDS011;5865;48.776;9.280;2023-06-04T11:28:56;3.25;;;2.70;;
11618;SDS011;5865;48.776;9.280;2023-06-04T11:31:23;2.97;;;2.65;;
11618;SDS011;5865;48.776;9.280;2023-06-04T11:33:51;3.63;;;2.88;;
11618;SDS011;5865;48.776;9.280;2023-06-04T11:36:26;5.95;;;3.17;;
11618;SDS011;5865;48.776;9.280;2023-06-04T11:38:55;3.50;;;2.88;;
11618;SDS011;5865;48.776;9.280;2023-06-04T11:41:23;4.45;;;3.15;;
11618;SDS011;5865;48.776;9.280;2023-06-04T11:43:51;3.15;;;2.80;;
11618;SDS011;5865;48.776;9.280;2023-06-04T11:46:18;3.28;;;2.58;;
11618;SDS011;5865;48.776;9.280;2023-06-04T11:48:45;5.18;;;2.90;;
11618;SDS011;5865;48.776;9.280;2023-06-04T11:51:12;4.35;;;3.05;;
11618;SDS011;5865;48.776;9.280;2023-06-04T11:53:41;3.05;;;2.60;;
11618;SDS011;5865;48.776;9.280;2023-06-04T11:56:08;4.15;;;3.20;;
11618;SDS011;5865;48.776;9.280;2023-06-04T11:58:36;3.75;;;2.78;;
11618;SDS011;5865;48.776;9.280;2023-06-04T12:01:05;4.35;;;2.55;;
11618;SDS011;5865;48.776;9.280;2023-06-04T12:03:34;4.13;;;2.40;;
11618;SDS011;5865;48.776;9.280;2023-06-04T12:06:12;4.13;;;2.95;;
11618;SDS011;5865;48.776;9.280;2023-06-04T12:08:49;4.95;;;2.67;;
11618;SDS011;5865;48.776;9.280;2023-06-04T12:11:27;3.83;;;3.05;;
11618;SDS011;5865;48.776;9.280;2023-06-04T12:13:56;4.78;;;2.60;;
11618;SDS011;5865;48.776;9.280;2023-06-04T12:16:24;2.72;;;2.53;;
11618;SDS011;5865;48.776;9.280;2023-06-04T12:18:52;3.78;;;2.78;;
11618;SDS011;5865;48.776;9.280;2023-06-04T12:21:31;3.63;;;2.50;;
11618;SDS011;5865;48.776;9.280;2023-06-04T12:24:06;4.07;;;3.40;;
11618;SDS011;5865;48.776;9.280;2023-06-04T12:26:34;6.00;;;4.07;;
11618;SDS011;5865;48.776;9.280;2023-06-04T12:29:09;4.35;;;2.67;;
11618;SDS011;5865;48.776;9.280;2023-06-04T12:31:37;4.95;;;3.00;;
11618;SDS011;5865;48.776;9.280;2023-06-04T12:34:05;3.50;;;2.92;;
11618;SDS011;5865;48.776;9.280;2023-06-04T12:36:32;3.13;;;2.83;;
11618;SDS011;5865;48.776;9.280;2023-06-04T12:39:04;3.17;;;2.80;;
11618;SDS011;5865;48.776;9.280;2023-06-04T12:41:37;3.28;;;2.78;;
11618;SDS011;5865;48.776;9.280;2023-06-04T12:44:10;4.85;;;2.60;;
11618;SDS011;5865;48.776;9.280;2023-06-04T12:46:38;3.35;;;2.72;;
11618;SDS011;5865;48.776;9.280;2023-06-04T12:49:04;4.53;;;2.60;;
11618;SDS011;5865;48.776;9.280;2023-06-04T12:51:32;3.00;;;2.70;;
11618;SDS011;5865;48.776;9.280;2023-06-04T12:53:59;3.75;;;2.78;;
11618;SDS011;5865;48.776;9.280;2023-06-04T12:56:26;3.10;;;2.47;;
11618;SDS011;5865;48.776;9.280;2023-06-04T12:58:54;4.30;;;2.90;;
11618;SDS011;5865;48.776;9.280;2023-06-04T13:01:21;3.38;;;2.70;;
11618;SDS011;5865;48.776;9.280;2023-06-04T13:03:48;2.95;;;2.65;;
11618;SDS011;5865;48.776;9.280;2023-06-04T13:06:15;3.88;;;2.58;;
11618;SDS011;5865;48.776;9.280;2023-06-04T13:08:42;2.90;;;2.60;;
11618;SDS011;5865;48.776;9.280;2023-06-04T13:11:11;3.78;;;2.97;;
11618;SDS011;5865;48.776;9.280;2023-06-04T13:13:38;4.65;;;2.80;;
11618;SDS011;5865;48.776;9.280;2023-06-04T13:16:07;3.50;;;2.85;;
11618;SDS011;5865;48.776;9.280;2023-06-04T13:18:34;4.03;;;2.72;;
11618;SDS011;5865;48.776;9.280;2023-06-04T13:21:01;3.78;;;2.50;;
11618;SDS011;5865;48.776;9.280;2023-06-04T13:23:28;5.35;;;2.47;;
11618;SDS011;5865;48.776;9.280;2023-06-04T13:25:55;2.97;;;2.42;;
11618;SDS011;5865;48.776;9.280;2023-06-04T13:28:22;3.05;;;2.75;;
11618;SDS011;5865;48.776;9.280;2023-06-04T13:30:49;5.18;;;2.88;;
11618;SDS011;5865;48.776;9.280;2023-06-04T13:33:18;2.53;;;2.30;;
11618;SDS011;5865;48.776;9.280;2023-06-04T13:35:46;4.43;;;2.88;;
11618;SDS011;5865;48.776;9.280;2023-06-04T13:38:15;3.03;;;2.72;;
11618;SDS011;5865;48.776;9.280;2023-06-04T13:40:42;3.40;;;2.80;;
11618;SDS011;5865;48.776;9.280;2023-06-04T13:43:10;2.80;;;2.47;;
11618;SDS011;5865;48.776;9.280;2023-06-04T13:45:37;3.58;;;2.92;;
11618;SDS011;5865;48.776;9.280;2023-06-04T13:48:05;3.38;;;2.90;;
11618;SDS011;5865;48.776;9.280;2023-06-04T13:50:34;3.47;;;2.78;;
11618;SDS011;5865;48.776;9.280;2023-06-04T13:53:01;4.45;;;2.65;;
11618;SDS011;5865;48.776;9.280;2023-06-04T13:55:28;5.03;;;2.50;;
11618;SDS011;5865;48.776;9.280;2023-06-04T13:57:56;3.28;;;2.80;;
11618;SDS011;5865;48.776;9.280;2023-06-04T14:00:23;3.22;;;2.70;;
11618;SDS011;5865;48.776;9.280;2023-06-04T14:02:50;2.65;;;2.42;;
11618;SDS011;5865;48.776;9.280;2023-06-04T14:05:17;4.53;;;2.67;;
11618;SDS011;5865;48.776;9.280;2023-06-04T14:07:46;3.83;;;2.70;;
11618;SDS011;5865;48.776;9.280;2023-06-04T14:10:13;4.15;;;3.40;;
11618;SDS011;5865;48.776;9.280;2023-06-04T14:12:40;3.90;;;2.72;;
11618;SDS011;5865;48.776;9.280;2023-06-04T14:15:09;5.05;;;2.80;;
11618;SDS011;5865;48.776;9.280;2023-06-04T14:17:37;3.00;;;2.70;;
11618;SDS011;5865;48.776;9.280;2023-06-04T14:20:04;4.65;;;2.70;;
11618;SDS011;5865;48.776;9.280;2023-06-04T14:22:33;4.13;;;2.60;;
11618;SDS011;5865;48.776;9.280;2023-06-04T14:25:03;2.63;;;2.42;;
11618;SDS011;5865;48.776;9.280;2023-06-04T14:27:30;4.47;;;2.40;;
11618;SDS011;5865;48.776;9.280;2023-06-04T14:29:58;4.00;;;2.75;;
11618;SDS011;5865;48.776;9.280;2023-06-04T14:32:25;4.30;;;2.55;;
11618;SDS011;5865;48.776;9.280;2023-06-04T14:34:53;2.90;;;2.63;;
11618;SDS011;5865;48.776;9.280;2023-06-04T14:37:22;4.63;;;2.60;;
11618;SDS011;5865;48.776;9.280;2023-06-04T14:39:49;3.72;;;2.90;;
11618;SDS011;5865;48.776;9.280;2023-06-04T14:42:18;3.00;;;2.67;;
11618;SDS011;5865;48.776;9.280;2023-06-04T14:44:49;2.60;;;2.40;;
11618;SDS011;5865;48.776;9.280;2023-06-04T14:47:16;3.30;;;2.72;;
11618;SDS011;5865;48.776;9.280;2023-06-04T14:49:43;3.15;;;2.60;;
11618;SDS011;5865;48.776;9.280;2023-06-04T14:52:10;3.33;;;2.53;;
11618;SDS011;5865;48.776;9.280;2023-06-04T14:54:38;2.88;;;2.50;;
11618;SDS011;5865;48.776;9.280;2023-06-04T14:57:05;2.97;;;2.53;;
11618;SDS011;5865;48.776;9.280;2023-06-04T14:59:35;2.67;;;2.47;;
11618;SDS011;5865;48.776;9.280;2023-06-04T15:02:04;3.40;;;2.58;;
11618;SDS011;5865;48.776;9.280;2023-06-04T15:04:31;4.18;;;2.70;;
11618;SDS011;5865;48.776;9.280;2023-06-04T15:06:58;2.88;;;2.60;;
11618;SDS011;5865;48.776;9.280;2023-06-04T15:09:25;5.18;;;2.90;;
11618;SDS011;5865;48.776;9.280;2023-06-04T15:11:52;3.40;;;2.50;;
11618;SDS011;5865;48.776;9.280;2023-06-04T15:14:19;3.10;;;2.40;;